Terminal Aerodrome Forecast
Issued by NWS Charleston, WV

Current Version | Previous Version | Graphics & Text | Print | Product List | Glossary On
Versions: 1 2 3 4 5 6 7 8 9 10 11 12 13 14 15 16 17 18 19 20 21 22 23 24 25 26
000
FTUS41 KRLX 300800 AAA
TAFEKN
TAF AMD
KEKN 300804Z 3008/0106 00000KT 1SM BR BKN002
     FM300900 00000KT 1/4SM FG VV001
     FM301300 00000KT 2SM BR SCT001
     FM301400 VRB03KT P6SM SCT030
     FM301600 26005KT P6SM SCT040
     FM302200 27004KT P6SM VCSH BKN040
     FM010200 VRB03KT 6SM BR BKN035=

USA.gov is the U.S. government's official web portal to all federal, state and local government web resources and services.